createdAt,value
2023-02-17T00:00:35.100Z,18.17
2023-02-17T00:05:40.000Z,16.98
2023-02-17T00:10:42.943Z,14.85
2023-02-17T00:15:47.234Z,17.20
2023-02-17T00:20:50.125Z,17.92
2023-02-17T00:25:53.003Z,16.63
2023-02-17T00:30:57.337Z,16.75
2023-02-17T00:36:00.103Z,15.18
2023-02-17T00:41:02.967Z,15.93
2023-02-17T00:46:08.663Z,18.83
2023-02-17T00:51:12.259Z,15.48
2023-02-17T00:56:15.281Z,17.08
2023-02-17T01:01:21.584Z,16.05
2023-02-17T01:06:26.667Z,19.00
2023-02-17T01:11:31.971Z,15.25
2023-02-17T01:16:38.546Z,15.43
2023-02-17T01:21:41.400Z,14.70
2023-02-17T01:26:46.904Z,17.10
2023-02-17T01:31:51.025Z,16.30
2023-02-17T01:36:53.783Z,16.70
2023-02-17T01:41:57.021Z,16.75
2023-02-17T01:47:01.338Z,17.58
2023-02-17T01:52:09.589Z,17.20
2023-02-17T01:57:12.860Z,15.90
2023-02-17T02:02:17.798Z,19.02
2023-02-17T02:07:22.584Z,14.23
2023-02-17T02:12:27.545Z,14.20
2023-02-17T02:17:37.271Z,16.85
2023-02-17T02:23:10.922Z,19.60
2023-02-17T02:28:22.672Z,16.23
2023-02-17T02:33:32.833Z,18.83
2023-02-17T02:38:39.502Z,15.75
2023-02-17T02:43:43.006Z,15.32
2023-02-17T02:48:47.471Z,14.75
2023-02-17T02:53:58.001Z,15.02
2023-02-17T02:59:09.050Z,15.45
2023-02-17T03:04:15.225Z,14.07
2023-02-17T03:09:21.012Z,13.65
2023-02-17T03:14:24.528Z,13.48
2023-02-17T03:19:29.427Z,16.35
2023-02-17T03:24:32.181Z,11.52
2023-02-17T03:29:34.897Z,12.05
2023-02-17T03:34:38.981Z,11.70
2023-02-17T03:39:41.995Z,11.80
2023-02-17T03:44:44.723Z,12.00
2023-02-17T03:49:48.818Z,11.23
2023-02-17T03:54:52.604Z,11.98
2023-02-17T03:59:55.554Z,11.05
2023-02-17T04:04:59.667Z,10.95
2023-02-17T04:10:04.978Z,11.15
2023-02-17T04:15:09.481Z,11.00
2023-02-17T04:20:14.176Z,9.10
2023-02-17T04:25:16.980Z,8.70
2023-02-17T04:30:19.814Z,8.90
2023-02-17T04:35:24.000Z,10.85
2023-02-17T04:40:26.758Z,8.57
2023-02-17T04:45:29.837Z,8.35
2023-02-17T04:50:33.983Z,9.40
2023-02-17T04:55:37.004Z,8.93
2023-02-17T05:00:39.757Z,16.63
2023-02-17T05:05:43.995Z,9.30
2023-02-17T05:10:46.760Z,7.57
2023-02-17T05:15:49.608Z,9.38
2023-02-17T05:20:54.176Z,8.23
2023-02-17T05:25:56.921Z,8.20
2023-02-17T05:30:59.628Z,8.60
2023-02-17T05:36:05.546Z,6.93
2023-02-17T05:41:08.540Z,9.48
2023-02-17T05:46:11.322Z,8.75
2023-02-17T05:51:17.218Z,7.55
2023-02-17T05:56:20.228Z,8.00
2023-02-17T06:01:23.137Z,11.13
2023-02-17T06:06:27.440Z,5.68
2023-02-17T06:11:30.189Z,5.80
2023-02-17T06:16:33.131Z,6.88
2023-02-17T06:21:37.310Z,6.97
2023-02-17T06:26:40.360Z,6.28
2023-02-17T06:31:43.557Z,8.85
2023-02-17T06:36:47.814Z,6.25
2023-02-17T06:41:50.574Z,4.80
2023-02-17T06:46:53.357Z,4.95
2023-02-17T06:51:57.649Z,7.60
2023-02-17T06:57:00.426Z,7.05
2023-02-17T07:02:03.293Z,6.75
2023-02-17T07:07:08.070Z,5.57
2023-02-17T07:12:10.892Z,6.15
2023-02-17T07:17:13.931Z,6.10
2023-02-17T07:22:18.531Z,5.53
2023-02-17T07:27:21.264Z,5.55
2023-02-17T07:32:24.093Z,7.53
2023-02-17T07:37:28.356Z,7.05
2023-02-17T07:42:31.174Z,6.25
2023-02-17T07:47:34.224Z,5.82
2023-02-17T07:52:38.550Z,6.10
2023-02-17T07:57:41.305Z,6.47
2023-02-17T08:02:44.253Z,5.28
2023-02-17T08:07:48.364Z,5.22
2023-02-17T08:13:07.949Z,5.55
2023-02-17T08:18:11.401Z,6.30
2023-02-17T08:23:15.531Z,10.07
2023-02-17T08:28:18.316Z,7.97
2023-02-17T08:33:21.401Z,9.15
2023-02-17T08:38:27.035Z,9.10
2023-02-17T08:43:29.884Z,7.00
2023-02-17T08:48:32.700Z,8.35
2023-02-17T08:53:36.858Z,11.35
2023-02-17T08:58:39.973Z,6.95
2023-02-17T09:03:42.712Z,6.20
2023-02-17T09:08:47.210Z,7.18
2023-02-17T09:13:50.363Z,6.85
2023-02-17T09:18:53.850Z,6.35
2023-02-17T09:23:58.290Z,5.00
2023-02-17T09:29:02.094Z,4.85
2023-02-17T09:34:05.927Z,6.18
2023-02-17T09:39:13.438Z,5.72
2023-02-17T09:44:21.540Z,5.40
2023-02-17T09:49:27.440Z,5.05
2023-02-17T09:54:35.620Z,4.38
2023-02-17T09:59:43.486Z,4.10
2023-02-17T10:04:48.127Z,4.15
2023-02-17T10:09:54.523Z,3.00
2023-02-17T10:14:59.464Z,3.83
2023-02-17T10:20:06.525Z,3.15
2023-02-17T10:25:17.373Z,2.90
2023-02-17T10:30:30.149Z,3.30
2023-02-17T10:35:45.183Z,4.70
2023-02-17T10:40:51.381Z,3.13
2023-02-17T10:45:54.256Z,4.60
2023-02-17T10:51:01.209Z,4.18
2023-02-17T10:56:09.660Z,4.15
2023-02-17T11:01:13.328Z,3.63
2023-02-17T11:06:19.100Z,3.60
2023-02-17T11:11:24.587Z,3.22
2023-02-17T11:16:29.607Z,3.42
2023-02-17T11:21:33.766Z,5.63
2023-02-17T11:26:38.077Z,2.67
2023-02-17T11:31:40.898Z,3.58
2023-02-17T11:36:46.231Z,2.80
2023-02-17T11:41:50.389Z,4.28
2023-02-17T11:47:00.796Z,4.82
2023-02-17T11:52:11.902Z,5.82
2023-02-17T11:57:23.590Z,1.55
2023-02-17T12:02:39.385Z,2.53
2023-02-17T12:07:48.595Z,1.92
2023-02-17T12:13:02.988Z,1.85
2023-02-17T12:18:15.872Z,2.17
2023-02-17T12:23:59.672Z,1.90
2023-02-17T12:29:20.907Z,3.30
2023-02-17T12:34:29.684Z,3.85
2023-02-17T12:39:36.354Z,1.50
2023-02-17T12:44:43.714Z,1.60
2023-02-17T12:49:49.901Z,1.30
2023-02-17T12:54:55.589Z,1.35
2023-02-17T12:59:59.887Z,1.90
2023-02-17T13:05:06.011Z,2.97
2023-02-17T13:10:23.089Z,2.15
2023-02-17T13:15:34.587Z,5.18
2023-02-17T13:20:53.548Z,0.85
2023-02-17T13:26:08.447Z,3.85
2023-02-17T13:31:16.538Z,1.20
2023-02-17T13:36:23.426Z,4.25
2023-02-17T13:41:26.220Z,1.33
2023-02-17T13:46:32.406Z,3.40
2023-02-17T13:51:35.436Z,2.67
2023-02-17T13:56:38.208Z,3.70
2023-02-17T14:01:43.897Z,6.68
2023-02-17T14:06:48.746Z,2.90
2023-02-17T14:11:52.284Z,2.55
2023-02-17T14:17:02.376Z,2.22
2023-02-17T14:22:06.845Z,1.25
2023-02-17T14:27:14.400Z,1.40
2023-02-17T14:32:29.952Z,3.35
2023-02-17T14:37:36.724Z,1.48
2023-02-17T14:42:39.584Z,1.98
2023-02-17T14:47:44.219Z,3.22
2023-02-17T14:52:48.622Z,1.10
2023-02-17T14:57:51.456Z,1.50
2023-02-17T15:02:55.641Z,1.73
2023-02-17T15:08:01.615Z,1.70
2023-02-17T15:13:04.457Z,1.35
2023-02-17T15:18:08.841Z,0.98
2023-02-17T15:23:14.220Z,1.75
2023-02-17T15:28:18.566Z,1.95
2023-02-17T15:33:24.362Z,1.38
2023-02-17T15:38:27.210Z,1.88
2023-02-17T15:48:40.856Z,0.90
2023-02-17T15:53:43.647Z,0.80
2023-02-17T15:58:47.126Z,1.23
2023-02-17T16:03:51.164Z,1.38
2023-02-17T16:08:54.094Z,1.10
2023-02-17T16:13:56.978Z,1.10
2023-02-17T16:19:01.907Z,2.50
2023-02-17T16:24:05.221Z,1.33
2023-02-17T16:29:14.659Z,1.40
2023-02-17T16:34:20.905Z,2.10
2023-02-17T16:39:23.842Z,1.25
2023-02-17T16:44:26.822Z,1.00
2023-02-17T16:49:33.476Z,1.23
2023-02-17T16:54:36.348Z,0.80
2023-02-17T16:59:39.052Z,1.10
2023-02-17T17:04:43.177Z,2.85
2023-02-17T17:10:06.773Z,1.23
2023-02-17T17:15:11.276Z,4.65
2023-02-17T17:20:20.074Z,2.83
2023-02-17T17:25:22.835Z,1.98
2023-02-17T17:30:27.618Z,2.30
2023-02-17T17:35:32.432Z,2.42
2023-02-17T17:40:48.208Z,3.55
2023-02-17T17:45:52.120Z,4.97
2023-02-17T17:50:56.442Z,5.75
2023-02-17T17:55:59.394Z,7.40
2023-02-17T18:01:02.390Z,6.90
2023-02-17T18:06:07.806Z,6.35
2023-02-17T18:11:11.643Z,5.00
2023-02-17T18:16:14.871Z,5.13
2023-02-17T18:21:19.262Z,4.40
2023-02-17T18:26:22.167Z,5.47
2023-02-17T18:31:27.587Z,4.25
2023-02-17T18:36:33.404Z,5.05
2023-02-17T18:41:36.408Z,3.20
2023-02-17T18:46:39.878Z,2.72
2023-02-17T18:51:44.067Z,3.05
2023-02-17T18:56:46.843Z,3.45
2023-02-17T19:01:49.600Z,2.10
2023-02-17T19:06:53.997Z,3.17
2023-02-17T19:11:56.811Z,3.28
2023-02-17T19:16:59.878Z,2.97
2023-02-17T19:22:08.121Z,2.70
2023-02-17T19:27:11.216Z,3.15
2023-02-17T19:32:14.228Z,3.50
2023-02-17T19:37:18.338Z,2.25
2023-02-17T19:42:21.175Z,2.55
2023-02-17T19:47:23.960Z,2.20
2023-02-17T19:52:28.574Z,4.00
2023-02-17T19:57:31.302Z,2.55
2023-02-17T20:02:34.071Z,3.08
2023-02-17T20:07:38.196Z,4.88
2023-02-17T20:12:41.053Z,5.05
2023-02-17T20:17:44.500Z,3.78
2023-02-17T20:22:48.611Z,3.88
2023-02-17T20:27:52.852Z,3.40
2023-02-17T20:32:55.704Z,3.97
2023-02-17T20:38:00.452Z,3.00
2023-02-17T20:43:04.294Z,4.78
2023-02-17T20:48:07.676Z,3.85
2023-02-17T20:53:11.978Z,3.40
2023-02-17T20:58:14.731Z,3.10
2023-02-17T21:03:17.537Z,5.20
2023-02-17T21:08:21.796Z,3.05
2023-02-17T21:13:24.646Z,3.38
2023-02-17T21:18:27.521Z,4.82
2023-02-17T21:23:31.649Z,6.47
2023-02-17T21:28:34.433Z,5.00
2023-02-17T21:33:41.705Z,5.00
2023-02-17T21:38:46.099Z,7.30
2023-02-17T21:44:06.799Z,3.03
2023-02-17T21:49:09.687Z,2.33
2023-02-17T21:54:13.952Z,3.00
2023-02-17T21:59:16.735Z,2.70
2023-02-17T22:04:21.429Z,4.68
2023-02-17T22:09:25.760Z,3.03
2023-02-17T22:14:28.573Z,5.15
2023-02-17T22:19:31.692Z,2.08
2023-02-17T22:24:35.867Z,2.92
2023-02-17T22:29:38.667Z,1.75
2023-02-17T22:34:41.424Z,4.93
2023-02-17T22:39:45.534Z,1.70
2023-02-17T22:44:48.838Z,6.50
2023-02-17T22:49:51.507Z,3.80
2023-02-17T22:54:56.085Z,5.13
2023-02-17T22:59:58.800Z,4.47
2023-02-17T23:05:01.677Z,6.00
2023-02-17T23:10:07.276Z,6.53
2023-02-17T23:15:11.744Z,5.85
2023-02-17T23:20:14.491Z,6.18
2023-02-17T23:25:18.659Z,5.88
2023-02-17T23:30:23.110Z,6.72
2023-02-17T23:35:25.829Z,6.30
2023-02-17T23:40:29.960Z,5.25
2023-02-17T23:45:32.795Z,3.95
2023-02-17T23:50:35.517Z,4.57
2023-02-17T23:55:39.590Z,5.82
